Time;durP1;ratioP1;P1;durP2;ratioP2;P2;SDS_P1;SDS_P2;PMS_P1;PMS_P2;Temp;Humidity;BMP_temperature;BMP_pressure;BME280_temperature;BME280_humidity;BME280_pressure;Samples;Min_cycle;Max_cycle;Signal;HPM_P1;HPM_P2
2021/04/27 00:00:19;;;;;;;8.10;3.10;;;9.30;48.40;;;;;;5037070;28;20206;-76
2021/04/27 00:02:46;;;;;;;3.63;2.95;;;9.40;48.90;;;;;;5036606;28;21063;-75
2021/04/27 00:05:16;;;;;;;3.78;3.00;;;9.40;48.90;;;;;;5037193;28;20666;-76
2021/04/27 00:07:43;;;;;;;4.35;2.90;;;9.40;49.60;;;;;;5036178;28;20204;-76
2021/04/27 00:10:14;;;;;;;4.25;3.00;;;9.20;48.50;;;;;;5035753;28;20212;-76
2021/04/27 00:12:40;;;;;;;3.70;2.70;;;9.10;48.80;;;;;;5035594;28;20307;-76
2021/04/27 00:15:10;;;;;;;5.93;3.20;;;8.90;48.00;;;;;;5035405;28;20670;-76
2021/04/27 00:17:36;;;;;;;5.63;3.67;;;8.70;48.50;;;;;;5035166;28;20338;-76
2021/04/27 00:20:04;;;;;;;7.97;3.33;;;8.50;49.00;;;;;;5035638;28;20239;-77
2021/04/27 00:22:31;;;;;;;3.90;2.90;;;8.50;49.50;;;;;;5035441;28;20311;-75
2021/04/27 00:24:58;;;;;;;3.25;2.50;;;8.70;49.90;;;;;;5035132;28;20270;-76
2021/04/27 00:27:24;;;;;;;3.30;3.00;;;8.80;50.60;;;;;;5034935;28;20295;-75
2021/04/27 00:29:51;;;;;;;4.45;3.15;;;9.00;49.60;;;;;;5035105;28;20301;-76
2021/04/27 00:32:17;;;;;;;4.70;2.90;;;9.10;49.70;;;;;;5035381;28;20208;-77
2021/04/27 00:34:44;;;;;;;4.93;2.40;;;9.20;50.00;;;;;;5035430;28;20298;-77
2021/04/27 00:37:10;;;;;;;3.60;2.53;;;9.20;50.40;;;;;;5034906;28;20215;-77
2021/04/27 00:39:37;;;;;;;4.50;3.35;;;9.10;49.90;;;;;;5035485;28;20239;-77
2021/04/27 00:42:04;;;;;;;6.95;3.30;;;9.10;50.10;;;;;;5035341;28;20311;-76
2021/04/27 00:44:30;;;;;;;3.05;2.70;;;9.10;50.00;;;;;;5035052;28;20287;-76
2021/04/27 00:46:57;;;;;;;2.67;2.47;;;9.10;50.30;;;;;;5034966;28;20294;-77
2021/04/27 00:49:23;;;;;;;3.88;2.92;;;9.10;50.70;;;;;;5035000;28;20227;-77
2021/04/27 00:51:50;;;;;;;3.97;2.80;;;9.00;50.70;;;;;;5035435;28;20246;-74
2021/04/27 00:54:16;;;;;;;3.30;2.80;;;9.10;50.70;;;;;;5034958;28;20227;-78
2021/04/27 00:56:44;;;;;;;8.63;3.50;;;9.00;50.40;;;;;;5036207;28;20694;-78
2021/04/27 00:59:10;;;;;;;3.58;2.40;;;9.00;51.20;;;;;;5035648;28;20287;-78
2021/04/27 01:01:37;;;;;;;3.97;2.83;;;9.00;51.20;;;;;;5035562;28;20302;-78
2021/04/27 01:04:04;;;;;;;6.15;2.70;;;8.90;51.20;;;;;;5035062;28;20277;-78
2021/04/27 01:06:30;;;;;;;3.42;2.47;;;8.80;51.50;;;;;;5035549;28;20211;-77
2021/04/27 01:09:01;;;;;;;2.75;2.30;;;8.80;52.10;;;;;;5034922;28;20243;-78
2021/04/27 01:11:32;;;;;;;4.47;2.60;;;8.70;51.80;;;;;;5034618;28;20211;-78
2021/04/27 01:14:07;;;;;;;3.55;2.80;;;8.70;52.10;;;;;;5034613;28;20228;-77
2021/04/27 01:16:37;;;;;;;3.85;3.35;;;8.70;52.50;;;;;;5034384;28;20290;-77
2021/04/27 01:19:08;;;;;;;5.40;2.97;;;8.60;52.60;;;;;;5035525;28;20231;-76
2021/04/27 01:21:34;;;;;;;3.45;2.70;;;8.60;52.90;;;;;;5035119;28;20738;-76
2021/04/27 01:24:22;;;;;;;4.68;2.60;;;8.50;53.20;;;;;;5035951;28;20228;-74
2021/04/27 01:26:52;;;;;;;4.38;3.00;;;8.40;52.90;;;;;;5034023;28;20578;-73
2021/04/27 01:29:22;;;;;;;4.30;3.08;;;8.30;52.90;;;;;;5034069;28;20643;-74
2021/04/27 01:31:50;;;;;;;4.13;2.60;;;8.30;53.50;;;;;;5034266;28;20212;-77
2021/04/27 01:34:19;;;;;;;3.78;2.60;;;8.30;53.70;;;;;;5035753;28;20303;-75
2021/04/27 01:36:45;;;;;;;3.58;3.10;;;8.30;54.30;;;;;;5035526;28;20211;-75
2021/04/27 01:39:12;;;;;;;4.10;3.08;;;8.30;54.00;;;;;;5035177;28;20291;-75
2021/04/27 01:41:39;;;;;;;3.45;2.60;;;8.20;54.20;;;;;;5033950;28;20205;-74
2021/04/27 01:44:07;;;;;;;3.67;2.45;;;8.20;54.30;;;;;;5033789;28;20220;-75
2021/04/27 01:46:34;;;;;;;3.17;2.70;;;8.20;54.10;;;;;;5033575;28;20222;-77
2021/04/27 01:49:02;;;;;;;5.13;3.00;;;8.10;53.70;;;;;;5032616;28;20334;-74
2021/04/27 01:51:29;;;;;;;3.92;3.00;;;8.20;54.20;;;;;;5033776;28;20254;-74
2021/04/27 01:53:55;;;;;;;4.45;2.90;;;8.10;54.00;;;;;;5033677;28;20230;-76
2021/04/27 01:56:22;;;;;;;2.55;2.30;;;7.90;53.30;;;;;;5033236;28;20203;-75
2021/04/27 01:58:49;;;;;;;3.03;2.72;;;7.90;53.50;;;;;;5033661;28;20295;-77
2021/04/27 02:01:17;;;;;;;3.60;2.80;;;7.80;54.00;;;;;;5033838;28;20299;-77
2021/04/27 02:03:45;;;;;;;2.90;2.50;;;7.80;53.90;;;;;;5034276;28;20584;-77
2021/04/27 02:06:11;;;;;;;4.93;2.88;;;7.80;55.30;;;;;;5034136;28;20295;-78
2021/04/27 02:08:38;;;;;;;3.78;2.85;;;7.90;55.80;;;;;;5035801;28;20211;-78
2021/04/27 02:11:06;;;;;;;3.22;2.75;;;7.90;55.90;;;;;;5034291;28;20299;-78
2021/04/27 02:13:33;;;;;;;3.80;3.20;;;7.90;56.10;;;;;;5034276;28;20216;-77
2021/04/27 02:16:01;;;;;;;4.65;3.03;;;7.90;56.10;;;;;;5032984;28;20650;-72
2021/04/27 02:18:34;;;;;;;11.38;3.10;;;8.00;56.10;;;;;;5034376;28;20208;-72
2021/04/27 02:21:03;;;;;;;3.63;2.80;;;8.00;55.70;;;;;;5034480;28;20211;-72
2021/04/27 02:23:30;;;;;;;4.57;2.60;;;7.90;55.70;;;;;;5033873;28;20704;-70
2021/04/27 02:25:58;;;;;;;4.65;2.90;;;7.90;56.00;;;;;;5034237;28;20214;-70
2021/04/27 02:28:25;;;;;;;3.85;2.60;;;7.90;56.40;;;;;;5034471;28;20291;-70
2021/04/27 02:30:52;;;;;;;3.47;2.70;;;7.90;56.60;;;;;;5034143;28;20295;-70
2021/04/27 02:33:20;;;;;;;3.97;3.03;;;7.90;56.70;;;;;;5033874;28;20700;-70
2021/04/27 02:35:49;;;;;;;5.10;3.28;;;7.80;57.40;;;;;;5033944;28;20295;-70
2021/04/27 02:38:19;;;;;;;2.67;2.47;;;7.80;57.50;;;;;;5034277;28;20211;-70
2021/04/27 02:40:45;;;;;;;4.47;3.22;;;7.80;57.60;;;;;;5034372;28;20295;-70
2021/04/27 02:43:12;;;;;;;4.88;2.88;;;7.80;57.30;;;;;;5033619;28;20238;-70
2021/04/27 02:45:40;;;;;;;5.47;3.08;;;7.80;57.70;;;;;;5033716;28;20204;-70
2021/04/27 02:48:09;;;;;;;4.13;3.08;;;7.80;57.50;;;;;;5034014;28;20535;-70
2021/04/27 02:50:37;;;;;;;3.97;2.47;;;7.80;57.60;;;;;;5034006;28;20303;-70
2021/04/27 02:53:04;;;;;;;4.45;2.85;;;7.80;57.40;;;;;;5034073;28;20643;-70
2021/04/27 02:55:30;;;;;;;4.10;3.00;;;7.80;58.10;;;;;;5034267;28;20296;-70
2021/04/27 02:57:57;;;;;;;4.80;3.35;;;7.70;58.00;;;;;;5033736;28;20258;-70
2021/04/27 03:00:23;;;;;;;4.47;3.45;;;7.70;58.40;;;;;;5033291;28;20291;-70
2021/04/27 03:02:50;;;;;;;5.25;3.15;;;7.70;58.50;;;;;;5033740;28;20263;-70
2021/04/27 03:05:16;;;;;;;4.75;3.08;;;7.60;58.50;;;;;;5034016;28;20294;-70
2021/04/27 03:07:43;;;;;;;6.65;3.67;;;7.60;58.70;;;;;;5033800;28;20204;-70
2021/04/27 03:10:11;;;;;;;6.05;3.00;;;7.60;58.60;;;;;;5033818;28;20208;-70
2021/04/27 03:12:38;;;;;;;3.63;2.78;;;7.60;58.80;;;;;;5033560;28;20256;-70
2021/04/27 03:15:06;;;;;;;4.38;3.03;;;7.60;58.80;;;;;;5033724;28;20600;-70
2021/04/27 03:17:32;;;;;;;3.88;3.00;;;7.50;58.80;;;;;;5033604;28;20257;-70
2021/04/27 03:19:59;;;;;;;8.77;3.70;;;7.50;59.10;;;;;;5033908;28;20204;-70
2021/04/27 03:22:25;;;;;;;4.38;2.97;;;7.40;59.50;;;;;;5033603;28;20233;-70
2021/04/27 03:24:51;;;;;;;5.60;3.50;;;7.40;59.60;;;;;;5033452;28;20298;-70
2021/04/27 03:27:19;;;;;;;4.57;3.30;;;7.50;59.70;;;;;;5033133;28;20214;-70
2021/04/27 03:29:45;;;;;;;3.35;2.85;;;7.40;58.80;;;;;;5033466;28;20662;-70
2021/04/27 03:32:12;;;;;;;5.75;3.30;;;7.40;59.20;;;;;;5033323;28;20218;-70
2021/04/27 03:34:38;;;;;;;3.45;2.63;;;7.30;59.20;;;;;;5033772;28;20636;-70
2021/04/27 03:37:04;;;;;;;4.60;2.97;;;7.20;59.40;;;;;;5033456;28;20597;-70
2021/04/27 03:39:31;;;;;;;4.90;2.88;;;7.20;59.30;;;;;;5033486;28;20294;-70
2021/04/27 03:41:57;;;;;;;3.50;2.92;;;7.30;60.00;;;;;;5033390;28;20307;-70
2021/04/27 03:44:24;;;;;;;4.45;3.10;;;7.20;60.50;;;;;;5033285;28;20315;-70
2021/04/27 03:46:51;;;;;;;4.13;2.88;;;7.30;60.50;;;;;;5033362;28;20291;-70
2021/04/27 03:49:17;;;;;;;5.15;3.55;;;7.20;60.50;;;;;;5033467;28;20211;-70
2021/04/27 03:51:43;;;;;;;3.45;2.90;;;7.30;60.20;;;;;;5033788;28;20246;-70
2021/04/27 03:54:10;;;;;;;6.47;3.60;;;7.30;60.50;;;;;;5032946;28;20686;-70
2021/04/27 03:56:36;;;;;;;4.22;3.17;;;7.20;60.40;;;;;;5033156;28;20204;-70
2021/04/27 03:59:03;;;;;;;6.38;3.50;;;7.20;61.40;;;;;;5033352;28;20231;-70
2021/04/27 04:01:30;;;;;;;9.48;3.15;;;7.30;61.40;;;;;;5033429;28;20200;-70
2021/04/27 04:03:57;;;;;;;3.35;2.58;;;7.20;60.40;;;;;;5033431;28;20240;-70
2021/04/27 04:06:23;;;;;;;6.35;3.15;;;7.10;60.30;;;;;;5033150;28;20262;-71
2021/04/27 04:08:50;;;;;;;5.18;3.33;;;7.00;60.60;;;;;;5033345;28;20200;-70
2021/04/27 04:11:16;;;;;;;3.75;3.35;;;6.90;61.20;;;;;;5033432;28;20291;-70
2021/04/27 04:13:42;;;;;;;5.22;3.40;;;6.90;62.20;;;;;;5037009;28;20311;-70
2021/04/27 04:16:09;;;;;;;4.13;3.70;;;6.80;62.60;;;;;;5036523;28;20295;-70
2021/04/27 04:18:36;;;;;;;6.78;3.40;;;6.70;62.90;;;;;;5036945;28;20269;-70
2021/04/27 04:21:03;;;;;;;4.50;2.92;;;6.80;63.90;;;;;;5036902;28;20295;-70
2021/04/27 04:23:29;;;;;;;6.70;3.40;;;6.80;64.00;;;;;;5036511;28;20232;-70
2021/04/27 04:25:56;;;;;;;5.25;3.35;;;6.90;63.30;;;;;;5036298;28;20300;-70
2021/04/27 04:28:22;;;;;;;5.13;3.53;;;6.90;63.70;;;;;;5036602;28;20281;-70
2021/04/27 04:30:49;;;;;;;5.45;3.30;;;7.00;63.50;;;;;;5036645;28;20208;-70
2021/04/27 04:33:15;;;;;;;4.40;3.80;;;7.00;64.00;;;;;;5035814;28;20713;-70
2021/04/27 04:35:43;;;;;;;4.00;3.30;;;7.00;64.40;;;;;;5036071;28;20351;-70
2021/04/27 04:38:10;;;;;;;5.47;4.13;;;7.00;64.80;;;;;;5036057;28;20295;-70
2021/04/27 04:40:36;;;;;;;4.75;3.83;;;7.00;64.80;;;;;;5036326;28;20303;-70
2021/04/27 04:43:02;;;;;;;6.68;4.38;;;7.00;65.10;;;;;;5035914;28;20232;-70
2021/04/27 04:45:29;;;;;;;7.30;3.65;;;7.00;67.10;;;;;;5035867;28;20295;-70
2021/04/27 04:47:55;;;;;;;7.05;4.80;;;7.00;70.90;;;;;;5036367;28;20303;-70
2021/04/27 04:50:22;;;;;;;7.72;3.90;;;7.10;71.70;;;;;;5036433;28;20208;-70
2021/04/27 04:52:49;;;;;;;4.90;3.80;;;7.10;72.00;;;;;;5035949;28;20307;-70
2021/04/27 04:55:16;;;;;;;4.47;2.97;;;7.00;68.50;;;;;;5035803;28;20295;-70
2021/04/27 04:57:43;;;;;;;5.55;4.03;;;7.00;68.10;;;;;;5035956;28;20295;-70
2021/04/27 05:00:12;;;;;;;5.97;3.50;;;7.00;69.60;;;;;;5036161;28;20208;-70
2021/04/27 05:02:39;;;;;;;7.95;4.40;;;7.10;70.00;;;;;;5035879;28;20311;-70
2021/04/27 05:05:06;;;;;;;5.82;3.80;;;7.20;70.60;;;;;;5036309;28;20619;-70
2021/04/27 05:07:39;;;;;;;3.95;3.22;;;7.20;71.60;;;;;;5035643;28;20612;-70
2021/04/27 05:10:07;;;;;;;5.10;4.03;;;7.20;70.40;;;;;;5035812;28;20725;-70
2021/04/27 05:12:34;;;;;;;8.63;3.08;;;7.30;69.20;;;;;;5035450;28;20366;-70
2021/04/27 05:15:00;;;;;;;4.70;3.50;;;7.40;69.10;;;;;;5035450;28;20561;-71
2021/04/27 05:17:27;;;;;;;4.60;3.90;;;7.30;66.90;;;;;;5035322;28;20291;-70
2021/04/27 05:19:53;;;;;;;5.20;3.55;;;7.30;66.00;;;;;;5035534;28;20306;-70
2021/04/27 05:22:20;;;;;;;5.00;3.55;;;7.40;66.20;;;;;;5035159;28;20315;-70
2021/04/27 05:24:46;;;;;;;9.68;4.22;;;7.30;64.50;;;;;;5035805;28;20208;-70
2021/04/27 05:27:14;;;;;;;5.18;3.42;;;7.10;63.50;;;;;;5035483;28;20203;-70
2021/04/27 05:29:40;;;;;;;4.80;3.50;;;7.00;64.30;;;;;;5035575;28;20208;-70
2021/04/27 05:32:07;;;;;;;6.28;3.80;;;7.10;65.10;;;;;;5035022;28;20255;-70
2021/04/27 05:34:34;;;;;;;8.10;3.85;;;7.10;64.90;;;;;;5035399;28;20235;-70
2021/04/27 05:37:00;;;;;;;7.95;4.68;;;7.00;64.90;;;;;;5035169;28;20268;-70
2021/04/27 05:39:26;;;;;;;7.22;3.70;;;7.20;65.50;;;;;;5035319;28;20291;-70
2021/04/27 05:41:53;;;;;;;5.97;3.72;;;7.30;64.40;;;;;;5035385;28;20294;-70
2021/04/27 05:44:20;;;;;;;4.65;3.90;;;7.30;64.10;;;;;;5035305;28;20232;-70
2021/04/27 05:46:46;;;;;;;6.15;3.30;;;7.30;64.00;;;;;;5034796;28;20298;-70
2021/04/27 05:49:13;;;;;;;5.60;3.15;;;7.30;64.80;;;;;;5034877;28;20204;-70
2021/04/27 05:51:39;;;;;;;5.88;4.20;;;7.50;64.50;;;;;;5035063;28;20689;-70
2021/04/27 05:54:06;;;;;;;5.18;3.50;;;7.70;63.40;;;;;;5035225;28;20220;-70
2021/04/27 05:56:33;;;;;;;5.22;3.80;;;7.90;62.00;;;;;;5034592;28;20291;-70
2021/04/27 05:58:59;;;;;;;8.77;3.88;;;7.90;62.20;;;;;;5034593;28;20273;-70
2021/04/27 06:01:26;;;;;;;4.38;3.85;;;8.00;61.50;;;;;;5034739;28;20291;-70
2021/04/27 06:03:53;;;;;;;4.43;3.75;;;8.10;61.90;;;;;;5034511;28;20323;-70
2021/04/27 06:06:19;;;;;;;5.82;4.30;;;8.20;61.30;;;;;;5034139;28;20709;-70
2021/04/27 06:08:46;;;;;;;5.25;3.65;;;8.10;61.30;;;;;;5034879;28;20204;-70
2021/04/27 06:11:12;;;;;;;5.75;4.45;;;8.20;61.40;;;;;;5034813;28;20291;-70
2021/04/27 06:13:38;;;;;;;5.15;4.32;;;8.20;60.40;;;;;;5034340;28;20331;-70
2021/04/27 06:16:06;;;;;;;10.70;4.57;;;8.20;60.90;;;;;;5034312;28;20298;-70
2021/04/27 06:18:33;;;;;;;6.00;4.30;;;8.10;61.50;;;;;;5034247;28;20208;-70
2021/04/27 06:21:00;;;;;;;7.25;4.78;;;8.10;61.40;;;;;;5034538;28;20619;-70
2021/04/27 06:23:27;;;;;;;7.07;4.93;;;8.00;60.50;;;;;;5033748;28;20323;-70
2021/04/27 06:25:53;;;;;;;5.45;4.18;;;8.00;60.90;;;;;;5034427;28;20207;-70
2021/04/27 06:28:20;;;;;;;6.35;4.50;;;8.20;61.90;;;;;;5033913;28;20311;-70
2021/04/27 06:30:46;;;;;;;6.50;3.78;;;8.30;60.80;;;;;;5034238;28;20200;-70
2021/04/27 06:33:12;;;;;;;6.85;5.05;;;8.10;61.20;;;;;;5033751;28;20228;-70
2021/04/27 06:35:40;;;;;;;6.63;5.13;;;8.20;60.90;;;;;;5033333;28;20670;-70
2021/04/27 06:38:07;;;;;;;10.15;4.40;;;8.40;61.10;;;;;;5034260;28;20204;-70
2021/04/27 06:40:33;;;;;;;7.13;4.53;;;8.40;60.10;;;;;;5033705;28;20238;-70
2021/04/27 06:43:00;;;;;;;7.07;4.85;;;8.30;60.30;;;;;;5034158;28;20310;-70
2021/04/27 06:45:27;;;;;;;6.50;4.35;;;8.30;61.00;;;;;;5033649;28;20199;-70
2021/04/27 06:47:53;;;;;;;8.60;4.70;;;8.50;60.30;;;;;;5034129;28;20525;-70
2021/04/27 06:50:20;;;;;;;9.13;5.53;;;8.60;60.60;;;;;;5034367;28;20218;-70
2021/04/27 06:52:47;;;;;;;6.10;4.40;;;8.60;60.30;;;;;;5033834;28;20909;-70
2021/04/27 06:55:15;;;;;;;6.85;4.40;;;8.60;59.90;;;;;;5033820;28;20239;-70
2021/04/27 06:57:41;;;;;;;7.05;5.10;;;8.60;60.40;;;;;;5033697;28;20291;-70
2021/04/27 07:00:09;;;;;;;5.25;4.75;;;8.70;59.80;;;;;;5034146;28;20299;-70
2021/04/27 07:02:36;;;;;;;6.40;4.95;;;8.70;59.60;;;;;;5033536;28;20650;-70
2021/04/27 07:05:03;;;;;;;7.72;4.72;;;8.70;59.30;;;;;;5034348;28;20212;-70
2021/04/27 07:07:29;;;;;;;7.88;4.82;;;8.70;60.00;;;;;;5033872;28;20298;-70
2021/04/27 07:09:56;;;;;;;5.68;4.40;;;8.80;60.00;;;;;;5033363;28;20299;-70
2021/04/27 07:12:22;;;;;;;6.30;4.78;;;9.00;60.10;;;;;;5033910;28;20207;-70
2021/04/27 07:14:49;;;;;;;7.03;5.18;;;8.80;59.40;;;;;;5033957;28;20204;-70
2021/04/27 07:17:16;;;;;;;9.73;5.05;;;8.80;59.80;;;;;;5033665;28;20605;-70
2021/04/27 07:19:42;;;;;;;9.40;5.65;;;8.90;59.90;;;;;;5033809;28;20210;-71
2021/04/27 07:22:08;;;;;;;10.65;5.07;;;8.80;59.20;;;;;;5027337;28;20204;-71
2021/04/27 07:24:35;;;;;;;6.60;4.97;;;8.80;60.30;;;;;;5030965;28;20224;-71
2021/04/27 07:27:03;;;;;;;8.77;5.10;;;9.00;60.70;;;;;;5031080;28;20253;-71
2021/04/27 07:29:29;;;;;;;7.93;5.10;;;9.20;60.00;;;;;;5031154;28;20196;-71
2021/04/27 07:31:56;;;;;;;8.23;5.63;;;9.40;59.80;;;;;;5030986;28;20266;-71
2021/04/27 07:34:22;;;;;;;6.00;5.18;;;9.70;59.10;;;;;;5030769;28;20335;-71
2021/04/27 07:36:49;;;;;;;6.90;5.10;;;9.80;57.60;;;;;;5031618;28;20204;-71
2021/04/27 07:39:15;;;;;;;7.85;4.97;;;9.60;57.30;;;;;;5032314;28;20231;-71
2021/04/27 07:41:42;;;;;;;6.95;5.13;;;9.70;58.70;;;;;;5032127;28;20215;-71
2021/04/27 07:44:10;;;;;;;7.50;5.55;;;9.90;58.20;;;;;;5031796;28;20269;-71
2021/04/27 07:46:36;;;;;;;7.95;5.13;;;10.10;57.50;;;;;;5032095;28;20257;-71
2021/04/27 07:49:03;;;;;;;8.70;5.78;;;10.30;56.10;;;;;;5035875;28;20290;-71
2021/04/27 07:51:30;;;;;;;8.52;5.60;;;10.40;55.90;;;;;;5035596;28;20215;-71
2021/04/27 07:53:56;;;;;;;5.55;5.03;;;10.50;56.30;;;;;;5035373;28;20226;-71
2021/04/27 07:56:23;;;;;;;8.10;5.55;;;10.80;56.00;;;;;;5035389;28;20302;-71
2021/04/27 07:58:49;;;;;;;7.20;5.60;;;11.00;55.30;;;;;;5035708;28;20204;-71
2021/04/27 08:01:16;;;;;;;6.32;5.45;;;11.00;55.20;;;;;;5035893;28;20295;-71
2021/04/27 08:03:43;;;;;;;6.63;5.13;;;11.20;55.00;;;;;;5035059;28;20318;-71
2021/04/27 08:06:09;;;;;;;10.20;5.75;;;11.40;55.10;;;;;;5035051;28;20761;-71
2021/04/27 08:08:35;;;;;;;8.05;6.20;;;11.80;54.00;;;;;;5035634;28;20204;-71
2021/04/27 08:11:02;;;;;;;8.25;5.80;;;12.60;52.20;;;;;;5035560;28;20295;-71
2021/04/27 08:13:28;;;;;;;7.30;5.78;;;13.40;50.60;;;;;;5035151;28;20251;-71
2021/04/27 08:15:55;;;;;;;7.60;5.60;;;13.80;48.20;;;;;;5034897;28;20292;-75
2021/04/27 08:18:22;;;;;;;6.28;5.65;;;14.40;48.70;;;;;;5035155;28;20578;-74
2021/04/27 08:20:49;;;;;;;6.60;5.72;;;14.90;47.10;;;;;;5035218;28;20251;-73
2021/04/27 08:23:15;;;;;;;7.05;5.68;;;14.40;47.50;;;;;;5035098;28;20234;-74
2021/04/27 08:25:42;;;;;;;7.05;6.00;;;14.40;47.70;;;;;;5034847;28;20214;-74
2021/04/27 08:28:08;;;;;;;6.90;5.90;;;14.80;47.60;;;;;;5035106;28;20227;-75
2021/04/27 08:30:34;;;;;;;7.28;5.60;;;15.10;47.00;;;;;;5035167;28;20611;-72
2021/04/27 08:33:01;;;;;;;7.00;6.28;;;15.00;46.90;;;;;;5034671;28;20662;-74
2021/04/27 08:35:29;;;;;;;6.72;5.70;;;15.30;46.50;;;;;;5034783;28;20570;-73
2021/04/27 08:37:55;;;;;;;9.38;6.70;;;15.20;45.70;;;;;;5035005;28;20207;-70
2021/04/27 08:40:21;;;;;;;7.80;6.28;;;15.00;47.10;;;;;;5036659;28;20207;-71
2021/04/27 08:42:49;;;;;;;10.80;6.18;;;14.80;47.10;;;;;;5035951;28;20324;-71
2021/04/27 08:45:17;;;;;;;8.10;6.25;;;13.90;46.80;;;;;;5036520;28;20208;-71
2021/04/27 08:47:44;;;;;;;9.13;6.60;;;13.30;48.80;;;;;;5036337;28;20291;-70
2021/04/27 08:50:13;;;;;;;7.82;6.30;;;13.20;48.60;;;;;;5035877;28;20207;-71
2021/04/27 08:52:41;;;;;;;7.25;6.43;;;13.80;48.50;;;;;;5035889;28;20642;-70
2021/04/27 08:55:09;;;;;;;9.70;6.10;;;14.00;49.00;;;;;;5035942;28;20273;-71
2021/04/27 08:57:36;;;;;;;8.02;6.32;;;14.80;48.80;;;;;;5034986;28;20255;-70
2021/04/27 09:00:05;;;;;;;9.88;6.03;;;15.10;46.90;;;;;;5036197;28;20615;-70
2021/04/27 09:02:32;;;;;;;9.48;7.10;;;15.30;46.90;;;;;;5035320;28;20234;-70
2021/04/27 09:04:59;;;;;;;7.43;5.80;;;16.80;45.00;;;;;;5035647;28;20210;-71
2021/04/27 09:07:27;;;;;;;6.93;6.20;;;18.70;43.00;;;;;;5035744;28;20297;-71
2021/04/27 09:09:56;;;;;;;8.27;5.87;;;20.20;41.30;;;;;;5035964;28;20450;-71
2021/04/27 09:12:24;;;;;;;7.50;6.47;;;21.10;38.80;;;;;;5035811;28;20445;-71
2021/04/27 09:14:51;;;;;;;7.60;6.17;;;21.40;37.40;;;;;;5035477;28;20496;-71
2021/04/27 09:17:18;;;;;;;8.47;7.50;;;22.50;36.30;;;;;;5035654;28;20479;-71
2021/04/27 09:19:46;;;;;;;6.40;5.80;;;23.80;34.50;;;;;;5035478;28;20538;-71
2021/04/27 09:22:16;;;;;;;8.20;6.63;;;25.30;32.60;;;;;;5035578;28;20439;-71
2021/04/27 09:24:45;;;;;;;6.67;5.97;;;25.90;31.30;;;;;;5035611;28;20573;-70
2021/04/27 09:27:14;;;;;;;7.67;6.23;;;27.10;29.90;;;;;;5035046;28;21001;-72
2021/04/27 09:29:43;;;;;;;7.77;6.50;;;27.00;29.50;;;;;;5035038;28;20443;-70
2021/04/27 09:32:11;;;;;;;6.70;6.00;;;28.10;29.00;;;;;;5035026;28;20454;-70
2021/04/27 09:34:39;;;;;;;8.43;6.10;;;28.30;27.70;;;;;;5035298;28;20590;-69
2021/04/27 09:37:07;;;;;;;10.20;6.27;;;28.60;27.70;;;;;;5035310;28;20501;-71
2021/04/27 09:39:36;;;;;;;7.50;6.70;;;27.90;28.10;;;;;;5035553;28;20489;-72
2021/04/27 09:42:06;;;;;;;7.00;6.30;;;27.60;27.80;;;;;;5034847;28;20534;-71
2021/04/27 09:44:35;;;;;;;7.40;6.57;;;27.40;27.40;;;;;;5034848;28;20482;-71
2021/04/27 09:47:17;;;;;;;7.40;5.90;;;25.40;29.60;;;;;;5035102;28;20542;-71
2021/04/27 09:49:55;;;;;;;9.83;6.80;;;25.90;30.10;;;;;;5035313;28;20442;-71
2021/04/27 09:52:22;;;;;;;10.37;6.90;;;25.80;29.30;;;;;;5034855;28;20472;-71
2021/04/27 09:55:09;;;;;;;8.43;6.80;;;26.30;30.00;;;;;;5034867;28;20443;-72
2021/04/27 09:57:37;;;;;;;7.67;6.90;;;25.50;29.30;;;;;;5034831;28;20452;-71
2021/04/27 10:00:28;;;;;;;9.20;6.57;;;25.00;29.90;;;;;;5035049;28;20845;-71
2021/04/27 10:02:56;;;;;;;7.80;7.00;;;24.30;30.00;;;;;;5031023;28;20581;-71
2021/04/27 10:05:23;;;;;;;7.27;6.30;;;25.60;30.00;;;;;;5034399;28;20777;-70
2021/04/27 10:07:50;;;;;;;8.00;6.63;;;25.50;29.80;;;;;;5034571;28;20451;-71
2021/04/27 10:10:18;;;;;;;8.23;7.23;;;25.50;29.20;;;;;;5034176;28;20445;-71
2021/04/27 10:12:46;;;;;;;9.03;7.17;;;25.60;29.60;;;;;;5034546;28;20471;-71
2021/04/27 10:15:14;;;;;;;10.03;7.57;;;24.10;29.10;;;;;;5034805;28;20462;-71
2021/04/27 10:17:42;;;;;;;7.83;6.53;;;23.90;31.30;;;;;;5034078;28;20985;-71
2021/04/27 10:20:13;;;;;;;8.47;7.20;;;24.90;31.70;;;;;;5034007;28;20450;-71
2021/04/27 10:22:41;;;;;;;8.90;6.87;;;25.90;29.10;;;;;;5034125;28;20961;-71
2021/04/27 10:25:13;;;;;;;9.33;7.33;;;26.90;29.60;;;;;;5034203;28;20451;-72
2021/04/27 10:27:40;;;;;;;10.33;6.60;;;26.80;28.90;;;;;;5034434;28;20450;-72
2021/04/27 10:30:31;;;;;;;8.30;6.67;;;27.90;29.10;;;;;;5034437;28;20447;-72
2021/04/27 10:33:17;;;;;;;8.30;7.47;;;28.30;27.70;;;;;;5027427;28;20514;-72
2021/04/27 10:36:00;;;;;;;7.40;6.70;;;27.20;26.90;;;;;;5034397;28;20525;-71
2021/04/27 10:38:45;;;;;;;8.20;6.97;;;26.30;29.10;;;;;;5033886;28;20450;-71
2021/04/27 10:41:13;;;;;;;6.90;6.30;;;25.30;28.50;;;;;;5034289;28;20478;-71
2021/04/27 10:43:42;;;;;;;8.33;6.30;;;24.30;31.10;;;;;;5033696;28;20490;-71
2021/04/27 10:46:12;;;;;;;8.00;6.97;;;26.10;30.60;;;;;;5033879;28;20439;-72
2021/04/27 10:48:43;;;;;;;9.13;6.53;;;27.80;28.80;;;;;;5033897;28;20461;-72
2021/04/27 10:51:35;;;;;;;7.87;7.13;;;29.50;27.20;;;;;;5033763;28;20451;-70
2021/04/27 10:54:10;;;;;;;8.23;7.30;;;30.50;25.20;;;;;;5034556;28;20550;-72
2021/04/27 10:56:41;;;;;;;9.43;7.70;;;28.50;26.60;;;;;;5033569;28;20454;-71
2021/04/27 10:59:09;;;;;;;8.63;7.33;;;25.10;28.10;;;;;;5033519;28;21101;-71
2021/04/27 11:01:38;;;;;;;9.20;6.80;;;23.60;29.10;;;;;;5033627;28;20922;-71
2021/04/27 11:04:05;;;;;;;7.37;6.63;;;23.40;31.40;;;;;;5033679;28;20490;-71
2021/04/27 11:06:32;;;;;;;7.73;6.80;;;23.70;32.20;;;;;;5033252;28;20465;-70
2021/04/27 11:09:10;;;;;;;8.40;7.27;;;24.00;30.00;;;;;;5034136;28;20438;-70
2021/04/27 11:11:36;;;;;;;9.37;7.30;;;22.80;31.30;;;;;;5033340;28;20518;-71
2021/04/27 11:14:19;;;;;;;7.80;6.50;;;22.50;30.90;;;;;;5033451;28;20475;-70
2021/04/27 11:16:52;;;;;;;11.40;8.10;;;22.50;31.90;;;;;;5033526;28;20450;-71
2021/04/27 11:19:41;;;;;;;9.90;7.13;;;22.60;30.80;;;;;;5033919;28;20478;-71
2021/04/27 11:22:23;;;;;;;7.27;6.57;;;22.20;30.30;;;;;;5036718;28;20512;-71
2021/04/27 11:24:51;;;;;;;9.40;7.30;;;21.80;31.40;;;;;;5037933;28;20501;-71
2021/04/27 11:27:23;;;;;;;10.43;6.87;;;21.60;33.80;;;;;;5037666;28;20479;-70
2021/04/27 11:29:54;;;;;;;9.57;7.73;;;21.50;33.60;;;;;;5037892;28;20543;-70
2021/04/27 11:32:21;;;;;;;8.60;6.77;;;21.00;32.50;;;;;;5037492;28;20538;-70
2021/04/27 11:34:57;;;;;;;10.07;7.00;;;20.50;34.30;;;;;;5037623;28;20443;-70
2021/04/27 11:37:26;;;;;;;9.05;7.20;;;20.20;33.90;;;;;;5037498;28;20443;-70
2021/04/27 11:39:53;;;;;;;8.98;7.00;;;20.20;34.40;;;;;;5037632;28;20295;-70
2021/04/27 11:42:28;;;;;;;7.90;6.38;;;20.10;33.70;;;;;;5037544;28;20273;-70
2021/04/27 11:44:56;;;;;;;8.90;6.55;;;19.20;33.80;;;;;;5037150;28;20214;-70
2021/04/27 11:47:24;;;;;;;8.15;6.90;;;19.10;35.60;;;;;;5037130;28;20273;-70
2021/04/27 11:49:57;;;;;;;10.52;7.35;;;19.00;35.50;;;;;;5037156;28;20282;-70
2021/04/27 11:52:45;;;;;;;7.80;6.50;;;19.20;36.40;;;;;;5037413;28;20208;-70
2021/04/27 11:55:20;;;;;;;8.18;6.50;;;19.40;35.40;;;;;;5037528;28;20224;-70
2021/04/27 11:57:49;;;;;;;11.57;7.40;;;19.50;35.30;;;;;;5037055;28;20214;-70
2021/04/27 12:00:16;;;;;;;7.85;6.10;;;19.20;34.50;;;;;;5037137;28;20350;-70
2021/04/27 12:02:43;;;;;;;8.80;6.57;;;19.20;34.00;;;;;;5036916;28;20230;-70
2021/04/27 12:05:11;;;;;;;9.52;6.50;;;19.10;35.50;;;;;;5037504;28;20294;-70
2021/04/27 12:07:38;;;;;;;9.23;7.13;;;19.10;35.20;;;;;;5037051;28;20208;-70
2021/04/27 12:10:08;;;;;;;8.05;7.05;;;19.30;34.60;;;;;;5036724;28;20214;-70
2021/04/27 12:12:35;;;;;;;8.50;6.45;;;19.40;35.50;;;;;;5036851;28;20323;-70
2021/04/27 12:15:03;;;;;;;8.35;6.55;;;19.20;35.20;;;;;;5037141;28;20334;-70
2021/04/27 12:17:31;;;;;;;8.88;7.25;;;19.20;35.40;;;;;;5036670;28;20647;-70
2021/04/27 12:20:11;;;;;;;11.43;7.25;;;18.70;35.40;;;;;;5036941;28;20208;-71
2021/04/27 12:22:47;;;;;;;7.55;6.50;;;18.10;34.70;;;;;;5036333;28;20311;-70
2021/04/27 12:25:19;;;;;;;7.40;6.03;;;18.30;36.30;;;;;;5036879;28;20192;-70
2021/04/27 12:27:45;;;;;;;7.55;6.35;;;18.60;36.60;;;;;;5036799;28;20254;-70
2021/04/27 12:30:14;;;;;;;7.88;6.25;;;19.10;35.90;;;;;;5036746;28;20295;-70
2021/04/27 12:32:44;;;;;;;10.20;6.57;;;19.20;33.80;;;;;;5035328;28;20365;-70
2021/04/27 12:35:21;;;;;;;9.15;6.30;;;19.10;34.50;;;;;;5036159;28;20235;-70
2021/04/27 12:37:57;;;;;;;8.25;6.18;;;19.30;34.80;;;;;;5036518;28;20300;-70
2021/04/27 12:40:25;;;;;;;7.03;5.65;;;19.40;34.60;;;;;;5036855;28;20207;-70
2021/04/27 12:42:53;;;;;;;7.22;6.47;;;19.70;34.60;;;;;;5036413;28;20228;-70
2021/04/27 12:45:20;;;;;;;8.05;6.22;;;19.90;33.30;;;;;;5035998;28;20200;-71
2021/04/27 12:47:49;;;;;;;6.78;6.07;;;19.80;33.80;;;;;;5036198;28;20606;-71
2021/04/27 12:50:18;;;;;;;7.78;5.90;;;20.10;34.20;;;;;;5036231;28;20204;-70
2021/04/27 12:52:52;;;;;;;8.05;5.95;;;20.10;33.00;;;;;;5035802;28;20591;-70
2021/04/27 12:55:20;;;;;;;6.67;5.87;;;20.30;33.70;;;;;;5036633;28;20193;-71
2021/04/27 12:57:46;;;;;;;8.03;6.53;;;20.40;33.40;;;;;;5035650;28;20460;-70